TimeMDT,TemperatureF,Dew PointF,Humidity,Sea Level PressureIn,VisibilityMPH,Wind Direction,Wind SpeedMPH,Gust SpeedMPH,PrecipitationIn,Events,Conditions,WindDirDegrees,DateUTC
12:15 AM,62.6,53.6,72,30.05,10.0,Calm,Calm,-,N/A,,Clear,0,2013-08-06 06:15:00
12:35 AM,62.6,53.6,72,30.05,10.0,ESE,3.5,-,N/A,,Clear,110,2013-08-06 06:35:00
12:55 AM,60.8,53.6,77,30.04,10.0,ENE,3.5,-,N/A,,Clear,60,2013-08-06 06:55:00
1:15 AM,62.6,53.6,72,30.04,10.0,NNE,5.8,-,N/A,,Clear,30,2013-08-06 07:15:00
1:35 AM,62.6,53.6,72,30.03,10.0,East,6.9,-,N/A,,Clear,100,2013-08-06 07:35:00
1:55 AM,60.8,53.6,77,30.03,10.0,East,3.5,-,N/A,,Clear,90,2013-08-06 07:55:00
2:15 AM,60.8,53.6,77,30.02,10.0,NE,4.6,-,N/A,,Clear,50,2013-08-06 08:15:00
2:35 AM,59.0,51.8,77,30.02,10.0,ENE,5.8,-,N/A,,Clear,60,2013-08-06 08:35:00
2:55 AM,59.0,51.8,77,30.01,10.0,Calm,Calm,-,N/A,,Clear,0,2013-08-06 08:55:00
3:15 AM,57.2,51.8,82,30.01,10.0,North,4.6,-,N/A,,Clear,10,2013-08-06 09:15:00
3:35 AM,57.2,51.8,82,30.01,10.0,East,4.6,-,N/A,,Clear,80,2013-08-06 09:35:00
3:55 AM,57.2,51.8,82,30.00,10.0,Calm,Calm,-,N/A,,Clear,0,2013-08-06 09:55:00
4:15 AM,57.2,51.8,82,30.01,9.0,Calm,Calm,-,N/A,,Clear,0,2013-08-06 10:15:00
4:35 AM,55.4,51.8,88,30.01,10.0,NNW,5.8,-,N/A,,Clear,330,2013-08-06 10:35:00
4:55 AM,55.4,51.8,88,30.01,8.0,NW,5.8,-,N/A,,Clear,320,2013-08-06 10:55:00
5:15 AM,55.4,50.0,82,30.01,8.0,NNW,3.5,-,N/A,,Clear,340,2013-08-06 11:15:00
5:35 AM,55.4,50.0,82,30.01,8.0,North,5.8,-,N/A,,Clear,350,2013-08-06 11:35:00
5:55 AM,55.4,48.2,77,30.01,8.0,NNW,3.5,-,N/A,,Clear,340,2013-08-06 11:55:00
6:15 AM,55.4,48.2,77,30.02,8.0,NW,4.6,-,N/A,,Clear,320,2013-08-06 12:15:00
6:55 AM,55.4,50.0,82,30.04,9.0,North,4.6,-,N/A,,Clear,360,2013-08-06 12:55:00
7:15 AM,55.4,51.8,88,30.03,8.0,Calm,Calm,-,N/A,,Clear,0,2013-08-06 13:15:00
7:35 AM,57.2,51.8,82,30.04,7.0,Calm,Calm,-,N/A,,Clear,0,2013-08-06 13:35:00
7:55 AM,57.2,51.8,82,30.05,9.0,Calm,Calm,-,N/A,,Clear,0,2013-08-06 13:55:00
8:15 AM,60.8,53.6,77,30.05,10.0,WNW,3.5,-,N/A,,Clear,290,2013-08-06 14:15:00
8:35 AM,64.4,55.4,73,30.04,10.0,West,3.5,-,N/A,,Clear,270,2013-08-06 14:35:00
8:55 AM,64.4,55.4,73,30.05,10.0,NNE,6.9,-,N/A,,Clear,20,2013-08-06 14:55:00
9:15 AM,66.2,57.2,73,30.05,10.0,North,3.5,-,N/A,,Clear,10,2013-08-06 15:15:00
9:35 AM,71.6,57.2,60,30.05,10.0,NNE,5.8,-,N/A,,Clear,20,2013-08-06 15:35:00
9:55 AM,73.4,57.2,57,30.05,10.0,East,3.5,-,N/A,,Clear,80,2013-08-06 15:55:00
10:15 AM,75.2,53.6,47,30.05,10.0,NE,8.1,-,N/A,,Clear,40,2013-08-06 16:15:00
10:35 AM,77.0,48.2,36,30.06,10.0,NE,6.9,-,N/A,,Clear,40,2013-08-06 16:35:00
11:15 AM,80.6,51.8,37,30.06,10.0,NNE,8.1,-,N/A,,Clear,20,2013-08-06 17:15:00
11:35 AM,80.6,50.0,34,30.06,10.0,ENE,5.8,-,N/A,,Clear,70,2013-08-06 17:35:00
12:15 PM,82.4,48.2,30,30.05,10.0,North,4.6,-,N/A,,Clear,10,2013-08-06 18:15:00
12:35 PM,84.2,51.8,33,30.04,10.0,East,6.9,-,N/A,,Clear,90,2013-08-06 18:35:00
12:55 PM,86.0,50.0,29,30.03,10.0,ESE,4.6,-,N/A,,Clear,120,2013-08-06 18:55:00
1:15 PM,86.0,50.0,29,30.02,10.0,East,5.8,-,N/A,,Clear,80,2013-08-06 19:15:00
1:35 PM,87.8,48.2,25,30.02,10.0,East,5.8,-,N/A,,Clear,80,2013-08-06 19:35:00
1:55 PM,87.8,50.0,27,30.01,10.0,East,8.1,-,N/A,,Clear,90,2013-08-06 19:55:00
2:15 PM,87.8,48.2,25,30.01,10.0,Calm,Calm,-,N/A,,Clear,0,2013-08-06 20:15:00
2:55 PM,89.6,46.4,22,30.00,10.0,SE,9.2,-,N/A,,Clear,130,2013-08-06 20:55:00
3:15 PM,91.4,42.8,18,29.99,10.0,SSE,8.1,-,N/A,,Clear,150,2013-08-06 21:15:00
3:35 PM,91.4,39.2,16,29.99,10.0,South,6.9,-,N/A,,Clear,170,2013-08-06 21:35:00
3:55 PM,91.4,39.2,16,29.99,10.0,South,5.8,-,N/A,,Clear,190,2013-08-06 21:55:00
4:15 PM,89.6,46.4,22,30.00,10.0,WSW,12.7,-,N/A,,Clear,250,2013-08-06 22:15:00
4:35 PM,87.8,42.8,21,30.01,10.0,West,13.8,-,N/A,,Clear,260,2013-08-06 22:35:00
4:55 PM,87.8,42.8,21,30.02,10.0,West,13.8,17.3,N/A,,Clear,260,2013-08-06 22:55:00
5:15 PM,80.6,44.6,28,30.04,10.0,North,18.4,28.8,N/A,,Clear,350,2013-08-06 23:15:00
5:35 PM,80.6,46.4,30,30.05,10.0,North,6.9,-,N/A,,Clear,350,2013-08-06 23:35:00
5:55 PM,80.6,44.6,28,30.05,10.0,Calm,Calm,-,N/A,,Clear,0,2013-08-06 23:55:00
6:55 PM,80.6,46.4,30,30.04,10.0,ESE,9.2,-,N/A,,Clear,110,2013-08-07 00:55:00
7:15 PM,77.0,46.4,34,30.04,10.0,ESE,5.8,-,N/A,,Clear,120,2013-08-07 01:15:00
7:35 PM,73.4,48.2,41,30.03,10.0,ESE,6.9,-,N/A,,Clear,120,2013-08-07 01:35:00
8:15 PM,69.8,50.0,49,30.03,10.0,East,6.9,-,N/A,,Clear,100,2013-08-07 02:15:00
8:35 PM,68.0,50.0,52,30.04,10.0,SE,5.8,-,N/A,,Clear,130,2013-08-07 02:35:00
8:55 PM,69.8,48.2,46,30.05,10.0,South,4.6,-,N/A,,Clear,190,2013-08-07 02:55:00
9:15 PM,68.0,51.8,56,30.04,10.0,South,4.6,-,N/A,,Clear,180,2013-08-07 03:15:00
9:35 PM,66.2,50.0,56,30.06,10.0,SSE,5.8,-,N/A,,Clear,160,2013-08-07 03:35:00
9:55 PM,64.4,51.8,64,30.06,10.0,SE,5.8,-,N/A,,Clear,140,2013-08-07 03:55:00
10:15 PM,64.4,50.0,59,30.07,10.0,SE,9.2,-,N/A,,Clear,140,2013-08-07 04:15:00
10:35 PM,66.2,50.0,56,30.07,10.0,ESE,8.1,-,N/A,,Clear,110,2013-08-07 04:35:00
10:55 PM,62.6,51.8,68,30.07,10.0,East,8.1,-,N/A,,Clear,100,2013-08-07 04:55:00
11:15 PM,64.4,51.8,64,30.07,10.0,East,9.2,-,N/A,,Clear,90,2013-08-07 05:15:00
11:55 PM,64.4,50.0,59,30.09,10.0,East,13.8,-,N/A,,Clear,80,2013-08-07 05:55:00